createdAt,value
2023-04-02T00:00:18.788Z,10.60
2023-04-02T00:03:01.464Z,10.58
2023-04-02T00:05:31.199Z,10.55
2023-04-02T00:08:00.920Z,10.54
2023-04-02T00:10:31.578Z,10.52
2023-04-02T00:13:12.571Z,10.51
2023-04-02T00:15:43.629Z,10.48
2023-04-02T00:18:22.072Z,10.45
2023-04-02T00:21:14.802Z,10.42
2023-04-02T00:23:44.127Z,10.39
2023-04-02T00:26:34.366Z,10.39
2023-04-02T00:29:04.167Z,10.37
2023-04-02T00:31:38.672Z,10.35
2023-04-02T00:34:09.497Z,10.37
2023-04-02T00:36:37.709Z,10.39
2023-04-02T00:39:14.240Z,10.37
2023-04-02T00:41:47.333Z,10.32
2023-04-02T00:44:22.217Z,10.28
2023-04-02T00:46:51.264Z,10.24
2023-04-02T00:49:36.645Z,10.22
2023-04-02T00:52:10.434Z,10.21
2023-04-02T00:54:46.045Z,10.20
2023-04-02T00:57:18.197Z,10.19
2023-04-02T01:00:09.192Z,10.18
2023-04-02T01:02:41.089Z,10.21
2023-04-02T01:05:18.285Z,10.23
2023-04-02T01:08:19.922Z,10.24
2023-04-02T01:11:04.878Z,10.26
2023-04-02T01:13:50.360Z,10.27
2023-04-02T01:16:31.160Z,10.26
2023-04-02T01:19:27.644Z,10.26
2023-04-02T01:22:22.315Z,10.26
2023-04-02T01:24:51.258Z,10.27
2023-04-02T01:27:20.001Z,10.26
2023-04-02T01:29:50.433Z,10.26
2023-04-02T01:32:20.410Z,10.25
2023-04-02T01:34:50.553Z,10.23
2023-04-02T01:37:45.124Z,10.22
2023-04-02T01:40:20.398Z,10.20
2023-04-02T01:43:04.721Z,10.22
2023-04-02T01:45:35.572Z,10.24
2023-04-02T01:48:20.110Z,10.32
2023-04-02T01:50:50.012Z,10.26
2023-04-02T01:53:19.254Z,10.24
2023-04-02T01:55:55.479Z,10.26
2023-04-02T01:58:27.766Z,10.29
2023-04-02T02:00:58.819Z,10.27
2023-04-02T02:03:28.618Z,10.25
2023-04-02T02:05:57.374Z,10.25
2023-04-02T02:08:44.839Z,10.26
2023-04-02T02:11:16.527Z,10.26
2023-04-02T02:13:52.230Z,10.27
2023-04-02T02:16:23.607Z,10.25
2023-04-02T02:18:54.282Z,10.24
2023-04-02T02:21:48.864Z,10.25
2023-04-02T02:24:20.073Z,10.26
2023-04-02T02:26:50.082Z,10.24
2023-04-02T02:29:19.565Z,10.22
2023-04-02T02:31:48.617Z,10.21
2023-04-02T02:34:19.721Z,10.21
2023-04-02T02:36:53.512Z,10.21
2023-04-02T02:39:50.868Z,10.20
2023-04-02T02:42:30.216Z,10.18
2023-04-02T02:44:58.705Z,10.18
2023-04-02T02:47:32.349Z,10.18
2023-04-02T02:50:07.342Z,10.18
2023-04-02T02:52:37.033Z,10.20
2023-04-02T02:55:19.183Z,10.19
2023-04-02T02:57:59.264Z,10.18
2023-04-02T03:00:28.910Z,10.19
2023-04-02T03:02:59.975Z,10.19
2023-04-02T03:05:30.597Z,10.19
2023-04-02T03:08:03.243Z,10.19
2023-04-02T03:10:56.732Z,10.19
2023-04-02T03:13:35.745Z,10.18
2023-04-02T03:16:13.958Z,10.19
2023-04-02T03:18:57.792Z,10.22
2023-04-02T03:21:40.213Z,10.24
2023-04-02T03:24:18.250Z,10.25
2023-04-02T03:27:09.588Z,10.25
2023-04-02T03:29:41.801Z,10.22
2023-04-02T03:32:19.205Z,10.23
2023-04-02T03:35:01.246Z,10.23
2023-04-02T03:37:32.442Z,10.24
2023-04-02T03:40:04.782Z,10.24
2023-04-02T03:42:51.544Z,10.24
2023-04-02T03:45:28.769Z,10.24
2023-04-02T03:48:22.405Z,10.24
2023-04-02T03:51:03.423Z,10.25
2023-04-02T03:53:32.680Z,10.27
2023-04-02T03:56:01.255Z,10.29
2023-04-02T03:58:40.858Z,10.31
2023-04-02T04:01:20.433Z,10.31
2023-04-02T04:03:51.465Z,10.29
2023-04-02T04:06:31.361Z,10.32
2023-04-02T04:09:23.549Z,10.34
2023-04-02T04:11:54.174Z,10.33
2023-04-02T04:14:36.034Z,10.35
2023-04-02T04:17:38.787Z,10.60
2023-04-02T04:20:25.708Z,10.66
2023-04-02T04:22:58.302Z,10.68
2023-04-02T04:25:34.330Z,10.68
2023-04-02T04:28:40.257Z,10.68
2023-04-02T04:31:21.849Z,10.70
2023-04-02T04:34:03.724Z,10.69
2023-04-02T04:36:36.462Z,10.70
2023-04-02T04:39:14.814Z,10.75
2023-04-02T04:41:46.988Z,10.78
2023-04-02T04:44:24.473Z,10.82
2023-04-02T04:47:11.703Z,10.84
2023-04-02T04:49:51.457Z,10.85
2023-04-02T04:52:42.007Z,10.88
2023-04-02T04:55:40.992Z,10.89
2023-04-02T04:58:22.594Z,10.89
2023-04-02T05:01:09.667Z,10.81
2023-04-02T05:03:52.028Z,10.87
2023-04-02T05:06:39.814Z,10.87
2023-04-02T05:09:19.166Z,10.95
2023-04-02T05:12:32.896Z,10.97
2023-04-02T05:15:16.710Z,10.99
2023-04-02T05:18:35.005Z,11.00
2023-04-02T05:21:22.857Z,11.04
2023-04-02T05:23:56.748Z,11.03
2023-04-02T05:26:30.776Z,10.99
2023-04-02T05:29:12.357Z,10.98
2023-04-02T05:32:03.682Z,10.99
2023-04-02T05:34:35.322Z,10.97
2023-04-02T05:37:07.257Z,10.97
2023-04-02T05:39:48.208Z,10.98
2023-04-02T05:42:43.986Z,11.00
2023-04-02T05:45:24.334Z,11.04
2023-04-02T05:48:00.282Z,11.04
2023-04-02T05:50:37.909Z,11.05
2023-04-02T05:53:12.456Z,11.08
2023-04-02T05:55:45.325Z,11.10
2023-04-02T06:01:21.855Z,11.06
2023-04-02T06:04:08.572Z,11.07
2023-04-02T06:06:39.868Z,11.11
2023-04-02T06:09:23.178Z,11.16
2023-04-02T06:12:02.765Z,11.21
2023-04-02T06:14:31.631Z,11.23
2023-04-02T06:17:00.013Z,11.25
2023-04-02T06:19:35.146Z,11.26
2023-04-02T06:22:37.833Z,11.26
2023-04-02T06:25:16.383Z,11.25
2023-04-02T06:27:46.520Z,11.24
2023-04-02T06:30:19.597Z,11.29
2023-04-02T06:32:50.967Z,11.34
2023-04-02T06:35:20.862Z,11.35
2023-04-02T06:38:01.792Z,11.38
2023-04-02T06:40:40.860Z,11.41
2023-04-02T06:43:45.612Z,11.44
2023-04-02T06:46:35.075Z,11.43
2023-04-02T06:49:24.857Z,11.43
2023-04-02T06:51:57.969Z,11.45
2023-04-02T06:54:30.254Z,11.46
2023-04-02T06:57:03.724Z,11.48
2023-04-02T06:59:41.112Z,11.33
2023-04-02T07:02:25.671Z,11.22
2023-04-02T07:04:58.123Z,11.16
2023-04-02T07:07:32.863Z,11.15
2023-04-02T07:10:05.218Z,11.16
2023-04-02T07:12:35.648Z,11.16
2023-04-02T07:15:07.440Z,11.16
2023-04-02T07:17:37.288Z,11.23
2023-04-02T07:20:07.437Z,11.27
2023-04-02T07:22:36.368Z,11.36
2023-04-02T07:25:06.746Z,11.44
2023-04-02T07:27:40.096Z,11.25
2023-04-02T07:30:09.229Z,11.27
2023-04-02T07:32:38.876Z,11.54
2023-04-02T07:35:08.439Z,11.64
2023-04-02T07:37:38.588Z,11.63
2023-04-02T07:40:15.704Z,11.62
2023-04-02T07:42:44.565Z,11.62
2023-04-02T07:45:13.626Z,11.61
2023-04-02T07:47:43.025Z,11.61
2023-04-02T07:50:11.263Z,11.61
2023-04-02T07:52:42.848Z,11.64
2023-04-02T07:55:21.282Z,11.67
2023-04-02T07:57:53.030Z,11.62
2023-04-02T08:00:23.514Z,11.82
2023-04-02T08:02:54.267Z,11.93
2023-04-02T08:05:23.177Z,11.88
2023-04-02T08:07:55.772Z,11.69
2023-04-02T08:10:24.471Z,11.75
2023-04-02T08:12:57.582Z,11.80
2023-04-02T08:15:27.880Z,11.82
2023-04-02T08:17:56.453Z,11.86
2023-04-02T08:20:26.568Z,11.76
2023-04-02T08:22:55.291Z,11.74
2023-04-02T08:25:28.016Z,11.78
2023-04-02T08:27:57.964Z,11.99
2023-04-02T08:30:26.620Z,12.05
2023-04-02T08:33:00.556Z,12.07
2023-04-02T08:35:29.344Z,12.08
2023-04-02T08:37:58.629Z,12.05
2023-04-02T08:40:37.132Z,12.03
2023-04-02T08:43:43.191Z,12.06
2023-04-02T08:46:31.420Z,12.06
2023-04-02T08:49:13.166Z,12.08
2023-04-02T08:51:43.165Z,12.13
2023-04-02T08:54:26.090Z,12.23
2023-04-02T08:56:57.319Z,12.29
2023-04-02T08:59:30.557Z,12.34
2023-04-02T09:02:36.863Z,12.38
2023-04-02T09:05:07.427Z,12.34
2023-04-02T09:07:39.591Z,12.22
2023-04-02T09:10:24.138Z,12.10
2023-04-02T09:13:07.146Z,12.00
2023-04-02T09:15:36.184Z,12.03
2023-04-02T09:18:25.239Z,11.95
2023-04-02T09:21:03.932Z,11.86
2023-04-02T09:23:37.093Z,11.82
2023-04-02T09:26:33.383Z,11.78
2023-04-02T09:32:53.943Z,11.76
2023-04-02T09:35:26.821Z,11.75
2023-04-02T09:38:08.053Z,11.73
2023-04-02T09:40:43.365Z,11.69
2023-04-02T09:43:22.208Z,11.68
2023-04-02T09:46:02.607Z,11.64
2023-04-02T09:48:32.864Z,11.62
2023-04-02T09:51:16.669Z,11.61
2023-04-02T09:53:46.441Z,11.63
2023-04-02T09:56:16.933Z,11.61
2023-04-02T09:58:46.201Z,11.63
2023-04-02T10:03:19.045Z,11.70
2023-04-02T10:05:47.815Z,11.68
2023-04-02T10:08:28.463Z,11.69
2023-04-02T10:11:00.249Z,11.69
2023-04-02T10:13:55.996Z,11.69
2023-04-02T10:16:33.411Z,11.67
2023-04-02T10:19:14.941Z,11.63
2023-04-02T10:21:44.041Z,11.63
2023-04-02T10:24:14.166Z,11.69
2023-04-02T10:27:03.433Z,11.75
2023-04-02T10:29:32.247Z,11.81
2023-04-02T10:32:11.861Z,11.85
2023-04-02T10:35:03.702Z,11.85
2023-04-02T10:37:47.295Z,11.84
2023-04-02T10:40:26.772Z,11.84
2023-04-02T10:43:17.536Z,11.91
2023-04-02T10:46:23.041Z,11.97
2023-04-02T10:49:29.994Z,12.03
2023-04-02T10:51:59.626Z,12.09
2023-04-02T10:54:38.273Z,12.15
2023-04-02T10:57:12.239Z,12.18
2023-04-02T10:59:47.100Z,12.17
2023-04-02T11:02:23.517Z,12.17
2023-04-02T11:04:51.891Z,12.15
2023-04-02T11:07:24.885Z,12.10
2023-04-02T11:09:55.075Z,12.06
2023-04-02T11:12:49.426Z,12.01
2023-04-02T11:15:19.543Z,11.99
2023-04-02T11:17:47.837Z,11.94
2023-04-02T11:21:00.030Z,11.91
2023-04-02T11:23:31.134Z,11.96
2023-04-02T11:26:38.419Z,12.01
2023-04-02T11:29:29.749Z,12.07
2023-04-02T11:32:42.848Z,12.12
2023-04-02T11:35:33.456Z,12.11
2023-04-02T11:38:04.409Z,12.06
2023-04-02T11:41:07.982Z,11.96
2023-04-02T11:43:37.590Z,11.86
2023-04-02T11:46:32.781Z,11.80
2023-04-02T11:49:38.426Z,11.76
2023-04-02T11:52:21.146Z,11.77
2023-04-02T11:55:16.845Z,11.79
2023-04-02T11:57:52.453Z,11.82
2023-04-02T12:00:39.470Z,11.82
2023-04-02T12:03:42.195Z,11.85
2023-04-02T12:06:19.683Z,11.84
2023-04-02T12:09:05.012Z,11.83
2023-04-02T12:11:38.139Z,11.78
2023-04-02T12:14:48.841Z,11.70
2023-04-02T12:17:21.996Z,11.65
2023-04-02T12:19:54.685Z,11.60
2023-04-02T12:22:25.698Z,11.57
2023-04-02T12:25:22.245Z,11.54
2023-04-02T12:28:18.118Z,11.52
2023-04-02T12:30:47.247Z,11.51
2023-04-02T12:33:27.434Z,11.48
2023-04-02T12:35:59.828Z,11.46
2023-04-02T12:38:29.453Z,11.47
2023-04-02T12:41:03.758Z,11.48
2023-04-02T12:43:34.844Z,11.47
2023-04-02T12:46:05.474Z,11.47
2023-04-02T12:48:35.076Z,11.46
2023-04-02T12:51:03.805Z,11.47
2023-04-02T12:53:35.630Z,11.46
2023-04-02T12:56:04.478Z,11.45
2023-04-02T12:58:40.004Z,11.44
2023-04-02T13:01:18.634Z,11.42
2023-04-02T13:04:08.491Z,11.41
2023-04-02T13:06:39.074Z,11.37
2023-04-02T13:09:32.223Z,11.33
2023-04-02T13:12:03.522Z,11.33
2023-04-02T13:14:33.379Z,11.34
2023-04-02T13:17:01.683Z,11.35
2023-04-02T13:19:32.472Z,11.33
2023-04-02T13:22:02.026Z,11.29
2023-04-02T13:24:32.237Z,11.28
2023-04-02T13:27:01.950Z,11.32
2023-04-02T13:29:34.427Z,11.34
2023-04-02T13:32:08.045Z,11.35
2023-04-02T13:34:36.508Z,11.36
2023-04-02T13:37:13.088Z,11.31
2023-04-02T13:39:42.949Z,11.27
2023-04-02T13:42:11.402Z,11.26
2023-04-02T13:44:39.642Z,11.24
2023-04-02T13:47:11.615Z,11.20
2023-04-02T13:49:40.554Z,11.18
2023-04-02T13:52:11.482Z,11.16
2023-04-02T13:54:49.161Z,11.12
2023-04-02T13:57:18.757Z,11.09
2023-04-02T13:59:47.019Z,11.09
2023-04-02T14:02:20.662Z,11.12
2023-04-02T14:04:51.070Z,11.14
2023-04-02T14:07:26.380Z,11.15
2023-04-02T14:10:10.221Z,11.13
2023-04-02T14:13:26.997Z,11.05
2023-04-02T14:16:42.074Z,11.12
2023-04-02T14:19:18.243Z,11.12
2023-04-02T14:22:05.676Z,11.09
2023-04-02T14:24:54.251Z,11.11
2023-04-02T14:28:03.140Z,11.14
2023-04-02T14:31:09.874Z,11.13
2023-04-02T14:33:44.171Z,11.09
2023-04-02T14:36:46.924Z,11.08
2023-04-02T14:39:58.264Z,11.05
2023-04-02T14:43:04.988Z,11.04
2023-04-02T14:45:59.960Z,11.06
2023-04-02T14:48:58.844Z,11.09
2023-04-02T14:51:48.116Z,11.06
2023-04-02T14:54:54.113Z,11.03
2023-04-02T14:57:31.880Z,10.97
2023-04-02T15:00:29.417Z,10.91
2023-04-02T15:03:53.300Z,10.92
2023-04-02T15:06:35.844Z,10.95
2023-04-02T15:09:27.582Z,10.95
2023-04-02T15:12:27.725Z,10.94
2023-04-02T15:15:49.464Z,10.94
2023-04-02T15:18:33.310Z,10.94
2023-04-02T15:21:46.310Z,10.95
2023-04-02T15:25:07.227Z,10.93
2023-04-02T15:28:34.220Z,10.89
2023-04-02T15:31:16.236Z,10.87
2023-04-02T15:34:47.678Z,10.85
2023-04-02T15:37:56.733Z,10.86
2023-04-02T15:40:43.300Z,10.86
2023-04-02T15:43:14.241Z,10.82
2023-04-02T15:45:59.098Z,10.79
2023-04-02T15:48:36.378Z,10.82
2023-04-02T15:51:32.296Z,10.81
2023-04-02T15:54:12.826Z,10.77
2023-04-02T15:56:50.836Z,10.77
2023-04-02T15:59:54.490Z,10.76
2023-04-02T16:02:41.483Z,10.67
2023-04-02T16:05:28.311Z,10.75
2023-04-02T16:08:02.531Z,10.77
2023-04-02T16:10:42.883Z,10.78
2023-04-02T16:13:15.040Z,10.78
2023-04-02T16:16:09.930Z,10.78
2023-04-02T16:18:53.504Z,10.77
2023-04-02T16:21:23.722Z,10.72
2023-04-02T16:23:53.182Z,10.68
2023-04-02T16:27:20.171Z,10.64
2023-04-02T16:29:58.178Z,10.61
2023-04-02T16:33:00.213Z,10.56
2023-04-02T16:38:22.898Z,10.47
2023-04-02T16:41:07.829Z,10.44
2023-04-02T16:44:04.724Z,10.41
2023-04-02T16:46:54.338Z,10.29
2023-04-02T16:49:32.765Z,10.30
2023-04-02T16:52:23.913Z,10.26
2023-04-02T16:55:11.708Z,10.20
2023-04-02T16:58:07.637Z,10.21
2023-04-02T17:00:41.927Z,10.15
2023-04-02T17:03:34.887Z,10.05
2023-04-02T17:06:15.075Z,10.04
2023-04-02T17:08:47.715Z,10.00
2023-04-02T17:11:25.384Z,10.06
2023-04-02T17:14:28.462Z,10.02
2023-04-02T17:17:01.443Z,9.97
2023-04-02T17:19:31.505Z,9.93
2023-04-02T17:22:01.721Z,9.85
2023-04-02T17:24:44.925Z,9.77
2023-04-02T17:27:34.130Z,9.68
2023-04-02T17:30:15.563Z,9.62
2023-04-02T17:32:45.130Z,9.58
2023-04-02T17:35:18.113Z,9.55
2023-04-02T17:37:58.542Z,9.53
2023-04-02T17:40:41.529Z,9.50
2023-04-02T17:43:31.619Z,9.48
2023-04-02T17:46:25.125Z,9.46
2023-04-02T17:49:01.335Z,9.42
2023-04-02T17:51:42.493Z,9.40
2023-04-02T17:54:31.795Z,9.41
2023-04-02T17:57:33.909Z,9.41
2023-04-02T18:00:23.231Z,9.39
2023-04-02T18:03:03.782Z,9.37
2023-04-02T18:05:46.301Z,9.33
2023-04-02T18:08:22.680Z,9.30
2023-04-02T18:11:03.634Z,9.27
2023-04-02T18:13:36.378Z,9.24
2023-04-02T18:16:08.351Z,9.21
2023-04-02T18:19:11.087Z,9.18
2023-04-02T18:21:39.833Z,9.17
2023-04-02T18:24:21.280Z,9.15
2023-04-02T18:26:56.442Z,9.14
2023-04-02T18:29:31.336Z,9.13
2023-04-02T18:32:34.162Z,9.11
2023-04-02T18:35:14.862Z,9.09
2023-04-02T18:37:50.993Z,9.07
2023-04-02T18:40:25.792Z,8.97
2023-04-02T18:43:33.750Z,8.95
2023-04-02T18:46:23.956Z,9.01
2023-04-02T18:48:57.894Z,9.00
2023-04-02T18:51:28.554Z,8.99
2023-04-02T18:54:09.117Z,8.99
2023-04-02T18:56:39.698Z,8.99
2023-04-02T18:59:35.320Z,8.98
2023-04-02T19:02:33.611Z,8.95
2023-04-02T19:05:28.645Z,8.87
2023-04-02T19:08:20.706Z,8.82
2023-04-02T19:10:53.616Z,8.88
2023-04-02T19:13:27.005Z,8.82
2023-04-02T19:16:22.657Z,8.89
2023-04-02T19:19:16.064Z,8.91
2023-04-02T19:22:20.277Z,8.91
2023-04-02T19:25:03.234Z,8.91
2023-04-02T19:28:13.482Z,8.91
2023-04-02T19:31:04.091Z,8.91
2023-04-02T19:33:41.944Z,8.89
2023-04-02T19:36:33.012Z,8.87
2023-04-02T19:39:17.263Z,8.86
2023-04-02T19:41:54.456Z,8.87
2023-04-02T19:44:31.064Z,8.89
2023-04-02T19:47:22.868Z,8.90
2023-04-02T19:49:51.900Z,8.90
2023-04-02T19:52:22.258Z,8.89
2023-04-02T19:54:57.529Z,8.87
2023-04-02T19:57:30.653Z,8.89
2023-04-02T19:59:59.808Z,8.93
2023-04-02T20:02:30.104Z,8.93
2023-04-02T20:05:02.580Z,8.92
2023-04-02T20:07:53.802Z,8.92
2023-04-02T20:10:23.139Z,8.91
2023-04-02T20:12:52.467Z,8.93
2023-04-02T20:15:24.587Z,8.91
2023-04-02T20:17:52.822Z,8.92
2023-04-02T20:20:25.383Z,8.94
2023-04-02T20:22:54.033Z,8.97
2023-04-02T20:25:22.853Z,8.97
2023-04-02T20:27:58.888Z,8.97
2023-04-02T20:30:33.956Z,8.97
2023-04-02T20:33:04.550Z,8.93
2023-04-02T20:35:42.005Z,8.88
2023-04-02T20:38:18.664Z,8.87
2023-04-02T20:41:01.159Z,8.86
2023-04-02T20:43:36.201Z,8.86
2023-04-02T20:46:06.026Z,8.87
2023-04-02T20:48:35.306Z,8.90
2023-04-02T20:51:05.320Z,8.93
2023-04-02T20:53:35.615Z,8.94
2023-04-02T20:56:07.951Z,8.94
2023-04-02T20:58:37.426Z,8.93
2023-04-02T21:01:23.123Z,8.91
2023-04-02T21:03:56.887Z,8.91
2023-04-02T21:06:26.574Z,8.89
2023-04-02T21:08:54.825Z,8.87
2023-04-02T21:11:23.938Z,8.85
2023-04-02T21:13:52.997Z,8.85
2023-04-02T21:16:23.149Z,8.86
2023-04-02T21:18:52.915Z,8.86
2023-04-02T21:21:21.412Z,8.87
2023-04-02T21:23:59.632Z,8.88
2023-04-02T21:26:29.031Z,8.90
2023-04-02T21:28:58.882Z,8.89
2023-04-02T21:31:31.130Z,8.87
2023-04-02T21:34:07.381Z,8.87
2023-04-02T21:36:37.742Z,8.85
2023-04-02T21:39:08.417Z,8.82
2023-04-02T21:41:39.090Z,8.83
2023-04-02T21:44:08.574Z,8.82
2023-04-02T21:46:38.762Z,8.81
2023-04-02T21:49:10.599Z,8.78
2023-04-02T21:51:39.681Z,8.76
2023-04-02T21:54:09.197Z,8.74
2023-04-02T21:56:40.092Z,8.72
2023-04-02T21:59:09.347Z,8.68
2023-04-02T22:01:40.209Z,8.66
2023-04-02T22:04:09.988Z,8.64
2023-04-02T22:06:39.912Z,8.64
2023-04-02T22:09:13.015Z,8.63
2023-04-02T22:11:44.062Z,8.61
2023-04-02T22:14:13.000Z,8.59
2023-04-02T22:16:41.734Z,8.58
2023-04-02T22:19:14.137Z,8.60
2023-04-02T22:21:42.660Z,8.62
2023-04-02T22:24:19.100Z,8.64
2023-04-02T22:26:47.422Z,8.64
2023-04-02T22:29:15.980Z,8.63
2023-04-02T22:31:45.050Z,8.64
2023-04-02T22:34:13.991Z,8.66
2023-04-02T22:36:42.433Z,8.67
2023-04-02T22:39:12.481Z,8.65
2023-04-02T22:41:41.691Z,8.63
2023-04-02T22:44:15.082Z,8.63
2023-04-02T22:46:43.384Z,8.65
2023-04-02T22:49:11.912Z,8.66
2023-04-02T22:51:40.274Z,8.66
2023-04-02T22:54:08.932Z,8.66
2023-04-02T22:56:37.719Z,8.66
2023-04-02T22:59:06.281Z,8.65
2023-04-02T23:01:36.183Z,8.65
2023-04-02T23:04:05.569Z,8.65
2023-04-02T23:06:35.105Z,8.66
2023-04-02T23:09:04.349Z,8.67
2023-04-02T23:11:35.128Z,8.66
2023-04-02T23:14:03.836Z,8.66
2023-04-02T23:16:32.545Z,8.66
2023-04-02T23:19:01.644Z,8.66
2023-04-02T23:21:30.135Z,8.66
2023-04-02T23:23:59.304Z,8.68
2023-04-02T23:26:29.800Z,8.70
2023-04-02T23:28:59.376Z,8.71
2023-04-02T23:31:28.167Z,8.71
2023-04-02T23:33:56.843Z,8.72
2023-04-02T23:36:29.858Z,8.70
2023-04-02T23:39:01.857Z,8.69
2023-04-02T23:41:31.135Z,8.70
2023-04-02T23:43:59.408Z,8.69
2023-04-02T23:46:29.045Z,8.68
2023-04-02T23:48:57.551Z,8.66
2023-04-02T23:51:26.291Z,8.65
2023-04-02T23:53:55.723Z,8.66
2023-04-02T23:56:24.537Z,8.64
2023-04-02T23:58:52.971Z,8.62
